createdAt,value
2022-10-13T00:01:19.579Z,6.50
2022-10-13T00:03:48.471Z,6.48
2022-10-13T00:06:19.898Z,6.40
2022-10-13T00:08:47.774Z,6.30
2022-10-13T00:11:20.323Z,6.30
2022-10-13T00:13:49.927Z,6.30
2022-10-13T00:16:21.110Z,6.40
2022-10-13T00:18:50.154Z,6.40
2022-10-13T00:21:22.426Z,6.40
2022-10-13T00:23:52.141Z,6.40
2022-10-13T00:26:24.392Z,6.30
2022-10-13T00:28:53.039Z,6.30
2022-10-13T00:31:31.353Z,6.20
2022-10-13T00:34:01.674Z,6.20
2022-10-13T00:36:29.586Z,6.20
2022-10-13T00:38:58.333Z,6.10
2022-10-13T00:41:26.572Z,6.10
2022-10-13T00:44:01.045Z,6.10
2022-10-13T00:46:37.185Z,6.10
2022-10-13T00:49:16.813Z,6.10
2022-10-13T00:51:50.206Z,6.10
2022-10-13T00:54:22.242Z,6.10
2022-10-13T00:56:52.195Z,6.10
2022-10-13T00:59:29.039Z,6.06
2022-10-13T01:01:59.593Z,6.00
2022-10-13T01:04:33.355Z,6.00
2022-10-13T01:07:02.875Z,6.00
2022-10-13T01:09:37.422Z,6.00
2022-10-13T01:12:34.277Z,6.00
2022-10-13T01:15:10.779Z,6.06
2022-10-13T01:17:56.945Z,6.00
2022-10-13T01:20:50.410Z,6.00
2022-10-13T01:23:58.224Z,6.00
2022-10-13T01:27:19.268Z,5.90
2022-10-13T01:30:17.049Z,5.90
2022-10-13T01:33:24.821Z,5.80
2022-10-13T01:36:04.360Z,5.80
2022-10-13T01:38:46.237Z,5.80
2022-10-13T01:41:40.006Z,5.80
2022-10-13T01:44:48.489Z,5.90
2022-10-13T01:47:18.869Z,5.96
2022-10-13T01:49:48.013Z,6.00
2022-10-13T01:52:20.558Z,6.00
2022-10-13T01:54:51.254Z,6.08
2022-10-13T01:57:36.077Z,6.10
2022-10-13T02:00:13.630Z,6.20
2022-10-13T02:02:56.345Z,6.26
2022-10-13T02:06:06.449Z,6.30
2022-10-13T02:08:39.137Z,6.40
2022-10-13T02:11:20.358Z,6.40
2022-10-13T02:14:30.242Z,6.40
2022-10-13T02:17:03.675Z,6.42
2022-10-13T02:19:37.837Z,6.42
2022-10-13T02:22:09.786Z,6.40
2022-10-13T02:24:37.480Z,6.40
2022-10-13T02:27:07.233Z,6.40
2022-10-13T02:29:34.815Z,6.48
2022-10-13T02:32:02.396Z,6.50
2022-10-13T02:34:30.591Z,6.50
2022-10-13T02:36:58.215Z,6.50
2022-10-13T02:39:25.877Z,6.50
2022-10-13T02:41:53.828Z,6.50
2022-10-13T02:44:21.392Z,6.50
2022-10-13T02:46:48.916Z,6.50
2022-10-13T02:49:16.542Z,6.40
2022-10-13T02:51:44.110Z,6.40
2022-10-13T02:54:11.623Z,6.40
2022-10-13T02:56:39.273Z,6.40
2022-10-13T02:59:07.004Z,6.40
2022-10-13T03:01:35.862Z,6.40
2022-10-13T03:04:03.472Z,6.40
2022-10-13T03:06:31.032Z,6.34
2022-10-13T03:08:59.367Z,6.30
2022-10-13T03:11:26.909Z,6.26
2022-10-13T03:13:54.527Z,6.20
2022-10-13T03:16:22.436Z,6.20
2022-10-13T03:18:49.993Z,6.10
2022-10-13T03:21:17.645Z,6.10
2022-10-13T03:23:45.224Z,6.10
2022-10-13T03:26:12.901Z,6.10
2022-10-13T03:28:40.777Z,6.10
2022-10-13T03:31:12.083Z,6.10
2022-10-13T03:33:41.063Z,6.10
2022-10-13T03:36:08.815Z,6.02
2022-10-13T03:38:37.074Z,6.00
2022-10-13T03:41:17.054Z,6.00
2022-10-13T03:43:45.524Z,5.90
2022-10-13T03:46:16.593Z,5.90
2022-10-13T03:48:44.209Z,5.80
2022-10-13T03:51:15.855Z,5.80
2022-10-13T03:53:43.462Z,5.80
2022-10-13T03:56:17.509Z,5.80
2022-10-13T03:58:45.348Z,5.80
2022-10-13T04:01:14.264Z,5.72
2022-10-13T04:03:42.601Z,5.70
2022-10-13T04:06:10.464Z,5.70
2022-10-13T04:08:38.239Z,5.60
2022-10-13T04:11:11.772Z,5.60
2022-10-13T04:13:40.185Z,5.60
2022-10-13T04:16:15.697Z,5.60
2022-10-13T04:18:45.189Z,5.56
2022-10-13T04:21:15.091Z,5.50
2022-10-13T04:23:42.853Z,5.50
2022-10-13T04:26:23.017Z,5.50
2022-10-13T04:28:52.755Z,5.50
2022-10-13T04:31:24.628Z,5.50
2022-10-13T04:33:53.817Z,5.50
2022-10-13T04:36:21.977Z,5.50
2022-10-13T04:38:50.138Z,5.50
2022-10-13T04:41:19.391Z,5.40
2022-10-13T04:43:51.651Z,5.40
2022-10-13T04:46:24.381Z,5.40
2022-10-13T04:48:53.067Z,5.40
2022-10-13T04:51:24.533Z,5.40
2022-10-13T04:54:02.719Z,5.40
2022-10-13T04:56:30.283Z,5.40
2022-10-13T04:58:57.966Z,5.40
2022-10-13T05:01:26.320Z,5.40
2022-10-13T05:03:57.937Z,5.40
2022-10-13T05:06:30.677Z,5.40
2022-10-13T05:08:58.808Z,5.40
2022-10-13T05:11:29.015Z,5.40
2022-10-13T05:13:57.760Z,5.40
2022-10-13T05:16:26.225Z,5.50
2022-10-13T05:18:55.343Z,5.60
2022-10-13T05:21:27.663Z,5.70
2022-10-13T05:23:57.634Z,5.70
2022-10-13T05:26:28.997Z,5.80
2022-10-13T05:29:00.757Z,5.80
2022-10-13T05:31:31.572Z,5.90
2022-10-13T05:34:00.033Z,5.90
2022-10-13T05:36:34.943Z,6.00
2022-10-13T05:39:07.706Z,6.00
2022-10-13T05:41:35.720Z,6.10
2022-10-13T05:44:07.975Z,6.18
2022-10-13T05:46:36.553Z,6.20
2022-10-13T05:49:04.780Z,6.28
2022-10-13T05:51:37.996Z,6.30
2022-10-13T05:54:17.455Z,6.30
2022-10-13T05:56:53.145Z,6.36
2022-10-13T05:59:27.145Z,6.40
2022-10-13T06:01:55.876Z,6.40
2022-10-13T06:04:30.547Z,6.40
2022-10-13T06:06:58.283Z,6.48
2022-10-13T06:09:34.831Z,6.50
2022-10-13T06:12:02.384Z,6.50
2022-10-13T06:14:30.767Z,6.50
2022-10-13T06:16:58.344Z,6.56
2022-10-13T06:19:25.925Z,6.60
2022-10-13T06:21:53.838Z,6.60
2022-10-13T06:24:21.434Z,6.66
2022-10-13T06:26:49.188Z,6.70
2022-10-13T06:29:16.752Z,6.80
2022-10-13T06:31:44.256Z,6.90
2022-10-13T06:34:12.673Z,7.00
2022-10-13T06:36:42.231Z,7.00
2022-10-13T06:39:10.356Z,7.00
2022-10-13T06:41:38.214Z,7.08
2022-10-13T06:44:05.985Z,7.10
2022-10-13T06:46:33.601Z,7.10
2022-10-13T06:49:01.231Z,7.10
2022-10-13T06:51:28.857Z,7.20
2022-10-13T06:53:57.690Z,7.30
2022-10-13T06:56:25.391Z,7.36
2022-10-13T06:58:53.095Z,7.40
2022-10-13T07:01:21.017Z,7.50
2022-10-13T07:03:50.318Z,7.60
2022-10-13T07:06:18.989Z,7.60
2022-10-13T07:08:46.719Z,7.70
2022-10-13T07:11:16.442Z,7.80
2022-10-13T07:13:46.692Z,7.80
2022-10-13T07:16:17.336Z,7.90
2022-10-13T07:18:47.853Z,8.10
2022-10-13T07:21:15.750Z,8.20
2022-10-13T07:23:43.335Z,8.30
2022-10-13T07:26:15.998Z,8.36
2022-10-13T07:28:45.357Z,8.40
2022-10-13T07:31:18.150Z,8.50
2022-10-13T07:33:48.799Z,8.52
2022-10-13T07:36:16.756Z,8.60
2022-10-13T07:38:45.229Z,8.70
2022-10-13T07:41:14.541Z,8.76
2022-10-13T07:43:42.546Z,8.80
2022-10-13T07:46:13.541Z,8.88
2022-10-13T07:48:41.815Z,8.90
2022-10-13T07:51:12.748Z,8.98
2022-10-13T07:53:42.505Z,9.04
2022-10-13T07:56:13.830Z,9.16
2022-10-13T07:58:46.833Z,9.30
2022-10-13T08:01:16.546Z,9.34
2022-10-13T08:03:48.946Z,9.42
2022-10-13T08:06:18.727Z,9.50
2022-10-13T08:08:46.805Z,9.60
2022-10-13T08:11:17.282Z,9.60
2022-10-13T08:13:51.391Z,9.70
2022-10-13T08:16:19.718Z,9.80
2022-10-13T08:18:48.672Z,9.90
2022-10-13T08:24:13.971Z,10.10
2022-10-13T08:26:43.470Z,10.20
2022-10-13T08:29:28.468Z,10.30
2022-10-13T08:31:56.256Z,10.40
2022-10-13T08:34:25.087Z,10.40
2022-10-13T08:36:56.263Z,10.40
2022-10-13T08:39:24.924Z,10.48
2022-10-13T08:41:55.110Z,10.54
2022-10-13T08:45:28.294Z,10.64
2022-10-13T08:48:01.733Z,10.80
2022-10-13T08:50:36.870Z,10.84
2022-10-13T08:53:34.155Z,10.90
2022-10-13T08:56:14.321Z,11.00
2022-10-13T08:58:43.776Z,11.10
2022-10-13T09:01:19.650Z,11.14
2022-10-13T09:03:53.236Z,11.20
2022-10-13T09:06:41.531Z,11.30
2022-10-13T09:09:13.318Z,11.40
2022-10-13T09:11:50.964Z,11.48
2022-10-13T09:14:32.862Z,11.54
2022-10-13T09:17:23.862Z,11.60
2022-10-13T09:20:08.093Z,11.70
2022-10-13T09:22:40.557Z,11.80
2022-10-13T09:25:08.622Z,11.88
2022-10-13T09:27:52.387Z,11.90
2022-10-13T09:30:41.058Z,11.98
2022-10-13T09:33:09.043Z,12.00
2022-10-13T09:36:04.825Z,12.06
2022-10-13T09:38:34.532Z,12.10
2022-10-13T09:41:21.908Z,12.10
2022-10-13T09:43:49.618Z,12.18
2022-10-13T09:46:56.999Z,12.20
2022-10-13T09:49:43.817Z,12.28
2022-10-13T09:52:14.523Z,12.30
2022-10-13T09:54:52.252Z,12.40
2022-10-13T09:57:41.475Z,12.50
2022-10-13T10:00:27.788Z,12.60
2022-10-13T10:03:00.225Z,12.70
2022-10-13T10:05:56.225Z,12.80
2022-10-13T10:09:03.083Z,12.80
2022-10-13T10:11:41.404Z,12.90
2022-10-13T10:14:35.907Z,12.90
2022-10-13T10:17:54.429Z,13.00
2022-10-13T10:20:37.374Z,13.10
2022-10-13T10:23:49.340Z,13.20
2022-10-13T10:26:32.450Z,13.30
2022-10-13T10:29:17.549Z,13.40
2022-10-13T10:32:41.417Z,13.40
2022-10-13T10:35:22.099Z,13.50
2022-10-13T10:38:09.416Z,13.50
2022-10-13T10:41:07.815Z,13.50
2022-10-13T10:43:56.854Z,13.60
2022-10-13T10:46:41.269Z,13.60
2022-10-13T10:49:29.593Z,13.68
2022-10-13T10:52:00.060Z,13.70
2022-10-13T10:55:01.580Z,13.70
2022-10-13T10:58:00.628Z,13.80
2022-10-13T11:00:28.831Z,13.88
2022-10-13T11:03:31.436Z,13.90
2022-10-13T11:06:20.933Z,13.94
2022-10-13T11:08:50.659Z,14.00
2022-10-13T11:11:25.065Z,14.00
2022-10-13T11:14:05.059Z,14.10
2022-10-13T11:17:01.279Z,14.10
2022-10-13T11:19:39.033Z,14.10
2022-10-13T11:22:06.518Z,14.10
2022-10-13T11:24:34.131Z,14.10
2022-10-13T11:27:07.977Z,14.10
2022-10-13T11:29:45.633Z,14.18
2022-10-13T11:32:30.948Z,14.26
2022-10-13T11:35:04.539Z,14.30
2022-10-13T11:38:07.797Z,14.30
2022-10-13T11:41:17.704Z,14.40
2022-10-13T11:44:05.957Z,14.40
2022-10-13T11:46:55.645Z,14.48
2022-10-13T11:49:44.357Z,14.50
2022-10-13T11:52:39.781Z,14.50
2022-10-13T11:55:43.913Z,14.50
2022-10-13T11:58:18.520Z,14.50
2022-10-13T12:01:04.641Z,14.50
2022-10-13T12:03:39.210Z,14.50
2022-10-13T12:06:16.636Z,14.52
2022-10-13T12:08:51.760Z,14.60
2022-10-13T12:11:38.412Z,14.60
2022-10-13T12:14:24.189Z,14.60
2022-10-13T12:19:32.130Z,14.60
2022-10-13T12:22:01.604Z,14.60
2022-10-13T12:24:31.095Z,14.68
2022-10-13T12:26:58.963Z,14.70
2022-10-13T12:29:32.276Z,14.80
2022-10-13T12:32:17.729Z,14.80
2022-10-13T12:34:45.402Z,14.80
2022-10-13T12:37:33.711Z,14.90
2022-10-13T12:40:04.525Z,14.90
2022-10-13T12:42:36.120Z,14.90
2022-10-13T12:45:05.949Z,14.90
2022-10-13T12:47:49.065Z,14.90
2022-10-13T12:50:27.500Z,14.90
2022-10-13T12:53:12.558Z,14.90
2022-10-13T12:56:07.436Z,14.96
2022-10-13T12:58:36.109Z,15.00
2022-10-13T13:01:14.311Z,15.08
2022-10-13T13:03:44.137Z,15.10
2022-10-13T13:06:14.462Z,15.16
2022-10-13T13:08:43.358Z,15.20
2022-10-13T13:11:34.596Z,15.22
2022-10-13T13:14:24.593Z,15.30
2022-10-13T13:17:12.843Z,15.34
2022-10-13T13:19:43.912Z,15.40
2022-10-13T13:22:11.769Z,15.36
2022-10-13T13:24:40.463Z,15.36
2022-10-13T13:27:32.409Z,15.32
2022-10-13T13:30:00.073Z,15.40
2022-10-13T13:32:28.897Z,15.34
2022-10-13T13:34:56.619Z,15.30
2022-10-13T13:37:38.388Z,15.30
2022-10-13T13:40:15.980Z,15.30
2022-10-13T13:42:43.793Z,15.30
2022-10-13T13:45:21.846Z,15.30
2022-10-13T13:47:49.882Z,15.32
2022-10-13T13:50:27.805Z,15.30
2022-10-13T13:52:55.518Z,15.38
2022-10-13T13:55:24.258Z,15.40
2022-10-13T13:57:52.137Z,15.40
2022-10-13T14:00:20.716Z,15.40
2022-10-13T14:02:49.782Z,15.38
2022-10-13T14:05:17.440Z,15.30
2022-10-13T14:07:45.105Z,15.30
2022-10-13T14:10:12.740Z,15.30
2022-10-13T14:12:40.442Z,15.30
2022-10-13T14:15:09.239Z,15.30
2022-10-13T14:17:36.856Z,15.30
2022-10-13T14:20:05.496Z,15.30
2022-10-13T14:22:33.381Z,15.30
2022-10-13T14:25:00.960Z,15.30
2022-10-13T14:27:28.633Z,15.30
2022-10-13T14:29:56.280Z,15.30
2022-10-13T14:32:24.309Z,15.20
2022-10-13T14:34:51.853Z,15.20
2022-10-13T14:37:23.067Z,15.10
2022-10-13T14:39:51.151Z,15.10
2022-10-13T14:42:18.756Z,15.00
2022-10-13T14:44:46.329Z,15.00
2022-10-13T14:47:14.088Z,15.00
2022-10-13T14:49:41.621Z,14.94
2022-10-13T14:52:09.888Z,14.90
2022-10-13T14:54:40.073Z,14.90
2022-10-13T14:57:15.670Z,14.90
2022-10-13T14:59:43.717Z,14.88
2022-10-13T15:02:12.113Z,14.84
2022-10-13T15:04:40.004Z,14.84
2022-10-13T15:07:07.959Z,14.88
2022-10-13T15:09:52.304Z,14.90
2022-10-13T15:12:23.507Z,14.90
2022-10-13T15:14:51.307Z,14.90
2022-10-13T15:17:18.850Z,14.90
2022-10-13T15:19:46.465Z,14.90
2022-10-13T15:22:14.825Z,14.90
2022-10-13T15:24:43.379Z,14.90
2022-10-13T15:27:11.197Z,14.90
2022-10-13T15:29:38.741Z,14.88
2022-10-13T15:32:13.597Z,14.80
2022-10-13T15:34:41.206Z,14.80
2022-10-13T15:37:08.997Z,14.70
2022-10-13T15:39:37.002Z,14.60
2022-10-13T15:42:05.479Z,14.60
2022-10-13T15:44:57.307Z,14.50
2022-10-13T15:47:21.118Z,14.40
2022-10-13T15:49:48.750Z,14.30
2022-10-13T15:52:16.412Z,14.30
2022-10-13T15:54:44.069Z,14.20
2022-10-13T15:57:11.580Z,14.16
2022-10-13T15:59:39.181Z,14.10
2022-10-13T16:02:06.769Z,14.10
2022-10-13T16:04:37.443Z,14.02
2022-10-13T16:07:05.349Z,14.00
2022-10-13T16:09:33.017Z,13.90
2022-10-13T16:12:00.687Z,13.82
2022-10-13T16:14:28.503Z,13.72
2022-10-13T16:16:58.122Z,13.68
2022-10-13T16:19:25.662Z,13.60
2022-10-13T16:21:53.279Z,13.50
2022-10-13T16:24:21.506Z,13.40
2022-10-13T16:26:49.142Z,13.32
2022-10-13T16:29:16.865Z,13.30
2022-10-13T16:31:45.086Z,13.30
2022-10-13T16:34:12.597Z,13.30
2022-10-13T16:36:40.141Z,13.26
2022-10-13T16:39:07.731Z,13.20
2022-10-13T16:41:35.408Z,13.20
2022-10-13T16:44:03.170Z,13.10
2022-10-13T16:46:33.122Z,13.00
2022-10-13T16:49:01.014Z,13.00
2022-10-13T16:51:29.102Z,12.90
2022-10-13T16:54:04.137Z,12.90
2022-10-13T16:56:32.908Z,12.86
2022-10-13T16:59:05.069Z,12.90
2022-10-13T17:01:35.740Z,12.86
2022-10-13T17:04:05.239Z,12.84
2022-10-13T17:06:33.155Z,12.80
2022-10-13T17:09:03.383Z,12.80
2022-10-13T17:11:34.124Z,12.72
2022-10-13T17:14:02.733Z,12.70
2022-10-13T17:16:32.797Z,12.70
2022-10-13T17:19:00.564Z,12.60
2022-10-13T17:21:28.264Z,12.60
2022-10-13T17:23:56.867Z,12.60
2022-10-13T17:26:24.565Z,12.60
2022-10-13T17:28:53.461Z,12.52
2022-10-13T17:31:23.899Z,12.50
2022-10-13T17:33:53.204Z,12.50
2022-10-13T17:36:26.165Z,12.44
2022-10-13T17:38:56.229Z,12.50
2022-10-13T17:41:24.945Z,12.50
2022-10-13T17:43:52.911Z,12.50
2022-10-13T17:46:40.608Z,12.50
2022-10-13T17:49:12.472Z,12.50
2022-10-13T17:51:42.847Z,12.50
2022-10-13T17:54:15.933Z,12.50
2022-10-13T17:56:45.359Z,12.50
2022-10-13T17:59:15.553Z,12.40
2022-10-13T18:01:45.911Z,12.40
2022-10-13T18:04:18.068Z,12.34
2022-10-13T18:06:46.384Z,12.30
2022-10-13T18:09:20.596Z,12.30
2022-10-13T18:11:51.114Z,12.30
2022-10-13T18:14:22.280Z,12.30
2022-10-13T18:16:52.023Z,12.30
2022-10-13T18:19:21.388Z,12.20
2022-10-13T18:21:49.889Z,12.20
2022-10-13T18:24:17.687Z,12.20
2022-10-13T18:26:46.418Z,12.18
2022-10-13T18:29:14.162Z,12.20
2022-10-13T18:31:43.547Z,12.20
2022-10-13T18:34:15.951Z,12.20
2022-10-13T18:36:50.837Z,12.20
2022-10-13T18:39:29.382Z,12.20
2022-10-13T18:41:57.565Z,12.20
2022-10-13T18:44:25.280Z,12.20
2022-10-13T18:46:56.306Z,12.20
2022-10-13T18:49:30.913Z,12.20
2022-10-13T18:52:01.722Z,12.20
2022-10-13T18:54:30.311Z,12.20
2022-10-13T18:56:57.968Z,12.20
2022-10-13T18:59:26.245Z,12.20
2022-10-13T19:01:53.826Z,12.20
2022-10-13T19:04:22.371Z,12.18
2022-10-13T19:06:50.058Z,12.12
2022-10-13T19:09:17.686Z,12.12
2022-10-13T19:11:45.379Z,12.20
2022-10-13T19:14:13.861Z,12.20
2022-10-13T19:16:44.209Z,12.20
2022-10-13T19:19:13.004Z,12.20
2022-10-13T19:21:41.847Z,12.20
2022-10-13T19:24:10.407Z,12.20
2022-10-13T19:26:41.727Z,12.20
2022-10-13T19:29:13.154Z,12.20
2022-10-13T19:31:43.058Z,12.26
2022-10-13T19:34:13.546Z,12.30
2022-10-13T19:36:45.228Z,12.30
2022-10-13T19:39:23.930Z,12.30
2022-10-13T19:41:55.509Z,12.30
2022-10-13T19:44:25.332Z,12.30
2022-10-13T19:46:54.002Z,12.30
2022-10-13T19:49:25.948Z,12.32
2022-10-13T19:51:54.919Z,12.40
2022-10-13T19:54:23.724Z,12.40
2022-10-13T19:56:52.545Z,12.40
2022-10-13T19:59:20.963Z,12.40
2022-10-13T20:01:48.795Z,12.48
2022-10-13T20:04:20.556Z,12.50
2022-10-13T20:06:50.001Z,12.50
2022-10-13T20:09:19.538Z,12.50
2022-10-13T20:11:52.076Z,12.50
2022-10-13T20:14:20.346Z,12.50
2022-10-13T20:16:48.603Z,12.50
2022-10-13T20:19:19.467Z,12.50
2022-10-13T20:21:48.053Z,12.50
2022-10-13T20:24:15.995Z,12.52
2022-10-13T20:26:43.571Z,12.50
2022-10-13T20:29:11.294Z,12.50
2022-10-13T20:31:39.293Z,12.50
2022-10-13T20:34:07.730Z,12.50
2022-10-13T20:36:38.872Z,12.50
2022-10-13T20:39:09.053Z,12.50
2022-10-13T20:41:36.828Z,12.50
2022-10-13T20:44:04.583Z,12.40
2022-10-13T20:46:32.198Z,12.46
2022-10-13T20:49:15.038Z,12.50
2022-10-13T20:51:43.437Z,12.50
2022-10-13T20:54:14.723Z,12.40
2022-10-13T20:56:43.557Z,12.32
2022-10-13T20:59:14.726Z,12.30
2022-10-13T21:01:43.073Z,12.30
2022-10-13T21:04:11.377Z,12.30
2022-10-13T21:06:41.360Z,12.30
2022-10-13T21:09:10.788Z,12.30
2022-10-13T21:11:39.748Z,12.30
2022-10-13T21:14:09.474Z,12.20
2022-10-13T21:16:39.388Z,12.20
2022-10-13T21:19:07.733Z,12.20
2022-10-13T21:21:38.011Z,12.20
2022-10-13T21:24:08.378Z,12.20
2022-10-13T21:26:37.250Z,12.20
2022-10-13T21:29:05.588Z,12.20
2022-10-13T21:31:33.201Z,12.20
2022-10-13T21:34:00.985Z,12.20
2022-10-13T21:36:32.172Z,12.10
2022-10-13T21:39:06.090Z,12.10
2022-10-13T21:41:34.193Z,12.00
2022-10-13T21:44:02.061Z,12.00
2022-10-13T21:46:33.287Z,12.00
2022-10-13T21:49:05.265Z,12.00
2022-10-13T21:51:37.414Z,12.00
2022-10-13T21:54:09.458Z,12.00
2022-10-13T21:56:39.452Z,12.00
2022-10-13T21:59:09.990Z,12.00
2022-10-13T22:01:37.837Z,11.90
2022-10-13T22:04:06.320Z,11.90
2022-10-13T22:06:34.461Z,11.90
2022-10-13T22:09:05.581Z,11.90
2022-10-13T22:11:36.525Z,11.88
2022-10-13T22:14:05.629Z,11.82
2022-10-13T22:16:39.622Z,11.80
2022-10-13T22:19:07.955Z,11.80
2022-10-13T22:21:41.378Z,11.80
2022-10-13T22:24:13.348Z,11.76
2022-10-13T22:26:43.064Z,11.72
2022-10-13T22:29:15.973Z,11.70
2022-10-13T22:31:44.064Z,11.70
2022-10-13T22:34:13.862Z,11.70
2022-10-13T22:36:45.117Z,11.70
2022-10-13T22:39:14.828Z,11.70
2022-10-13T22:41:42.452Z,11.70
2022-10-13T22:44:10.452Z,11.70
2022-10-13T22:46:39.737Z,11.68
2022-10-13T22:49:08.404Z,11.70
2022-10-13T22:51:37.266Z,11.70
2022-10-13T22:54:05.614Z,11.70
2022-10-13T22:56:35.169Z,11.70
2022-10-13T22:59:07.991Z,11.70
2022-10-13T23:01:36.742Z,11.70
2022-10-13T23:04:04.763Z,11.70
2022-10-13T23:06:34.865Z,11.60
2022-10-13T23:09:07.394Z,11.60
2022-10-13T23:11:35.469Z,11.60
2022-10-13T23:14:03.938Z,11.60
2022-10-13T23:16:33.175Z,11.56
2022-10-13T23:19:01.313Z,11.54
2022-10-13T23:21:30.567Z,11.50
2022-10-13T23:24:06.072Z,11.50
2022-10-13T23:26:35.480Z,11.50
2022-10-13T23:29:07.005Z,11.40
2022-10-13T23:31:34.691Z,11.40
2022-10-13T23:34:02.344Z,11.40
2022-10-13T23:36:32.621Z,11.40
2022-10-13T23:39:05.287Z,11.40
2022-10-13T23:41:34.843Z,11.42
2022-10-13T23:44:02.561Z,11.40
2022-10-13T23:46:30.753Z,11.40
2022-10-13T23:48:58.392Z,11.40
2022-10-13T23:51:26.564Z,11.40
2022-10-13T23:53:55.540Z,11.42
2022-10-13T23:56:23.693Z,11.50
2022-10-13T23:58:51.837Z,11.50
